Time;durP1;ratioP1;P1;durP2;ratioP2;P2;SDS_P1;SDS_P2;PMS_P1;PMS_P2;Temp;Humidity;BMP_temperature;BMP_pressure;BME280_temperature;BME280_humidity;BME280_pressure;Samples;Min_cycle;Max_cycle;Signal;HPM_P1;HPM_P2
2021/03/18 00:00:16;;;;;;;8.58;7.62;;;;;;;1.56;81.19;98146.03;1725336;83;21292;-67
2021/03/18 00:02:44;;;;;;;9.60;8.60;;;;;;;1.56;81.10;98146.03;1725215;83;20938;-67
2021/03/18 00:05:14;;;;;;;9.18;8.28;;;;;;;1.56;80.93;98146.92;1725292;83;20958;-66
2021/03/18 00:07:43;;;;;;;9.35;8.03;;;;;;;1.55;80.94;98146.97;1725167;83;21009;-67
2021/03/18 00:10:11;;;;;;;9.43;8.53;;;;;;;1.54;81.00;98151.38;1725237;83;21001;-67
2021/03/18 00:12:43;;;;;;;10.78;8.95;;;;;;;1.53;81.19;98160.27;1725304;83;21013;-66
2021/03/18 00:15:12;;;;;;;9.85;8.88;;;;;;;1.55;81.18;98165.50;1725162;83;20997;-66
2021/03/18 00:17:39;;;;;;;9.83;8.83;;;;;;;1.54;81.42;98170.38;1725381;83;21056;-66
2021/03/18 00:20:12;;;;;;;9.65;8.65;;;;;;;1.53;81.48;98160.27;1725303;83;21208;-66
2021/03/18 00:22:41;;;;;;;10.60;9.60;;;;;;;1.53;81.58;98162.02;1725171;82;20969;-67
2021/03/18 00:25:12;;;;;;;9.45;8.48;;;;;;;1.52;81.34;98160.32;1725200;83;20965;-66
2021/03/18 00:36:25;;;;;;;7.37;5.58;;;;;;;1.46;79.12;98160.07;1725240;83;21215;-66
2021/03/18 00:38:54;;;;;;;6.60;5.10;;;;;;;1.42;78.62;98165.95;1725247;83;20981;-67
2021/03/18 00:41:23;;;;;;;6.50;5.15;;;;;;;1.40;78.04;98166.47;1725286;83;20954;-66
2021/03/18 00:43:52;;;;;;;8.23;4.60;;;;;;;1.39;77.64;98166.05;1725153;83;21013;-66
2021/03/18 00:46:21;;;;;;;5.25;4.53;;;;;;;1.36;76.60;98167.48;1725334;83;21021;-66
2021/03/18 00:48:50;;;;;;;5.10;4.20;;;;;;;1.36;76.86;98170.60;1725208;83;21214;-67
2021/03/18 00:51:18;;;;;;;5.08;3.77;;;;;;;1.32;76.65;98165.86;1725278;83;21507;-66
2021/03/18 00:53:48;;;;;;;4.50;4.10;;;;;;;1.30;76.54;98165.05;1725244;83;20939;-67
2021/03/18 00:56:20;;;;;;;5.65;4.80;;;;;;;1.27;76.33;98173.10;1725067;83;20899;-67
2021/03/18 00:58:50;;;;;;;4.65;4.20;;;;;;;1.25;76.44;98168.33;1718675;83;20986;-67
2021/03/18 01:01:24;;;;;;;5.65;5.05;;;;;;;1.21;76.14;98168.88;1711933;83;21214;-67
2021/03/18 01:03:51;;;;;;;4.25;3.85;;;;;;;1.18;76.07;98166.80;1711893;83;20982;-66
2021/03/18 01:06:26;;;;;;;5.87;5.28;;;;;;;1.15;75.85;98169.56;1711759;83;21033;-67
2021/03/18 01:08:57;;;;;;;6.12;4.40;;;;;;;1.12;75.76;98169.66;1711888;83;20934;-67
2021/03/18 01:11:28;;;;;;;5.03;4.33;;;;;;;1.08;75.25;98167.13;1711997;83;20962;-66
2021/03/18 01:14:00;;;;;;;4.67;4.20;;;;;;;1.08;75.40;98168.91;1711936;83;21393;-66
2021/03/18 01:16:36;;;;;;;5.50;5.00;;;;;;;1.06;75.54;98169.44;1711803;83;20963;-67
2021/03/18 01:19:07;;;;;;;5.30;4.67;;;;;;;1.03;75.60;98169.07;1711871;83;20954;-66
2021/03/18 01:21:45;;;;;;;5.30;4.80;;;;;;;1.01;75.48;98162.98;1711880;83;20939;-67
2021/03/18 01:24:14;;;;;;;4.90;4.37;;;;;;;1.01;75.57;98165.63;1711853;83;20951;-66
2021/03/18 01:26:42;;;;;;;5.50;4.92;;;;;;;0.98;75.67;98167.05;1711877;83;22251;-67
2021/03/18 01:29:11;;;;;;;6.22;4.95;;;;;;;0.98;75.71;98168.38;1711785;83;21054;-66
2021/03/18 01:31:42;;;;;;;5.85;5.22;;;;;;;0.97;75.57;98169.75;1711818;83;21069;-67
2021/03/18 01:34:09;;;;;;;4.75;4.33;;;;;;;0.95;75.55;98164.98;1711824;83;21034;-68
2021/03/18 01:36:39;;;;;;;6.05;4.40;;;;;;;0.94;75.06;98172.03;1711905;83;21026;-68
2021/03/18 01:39:09;;;;;;;6.42;4.30;;;;;;;0.93;75.36;98165.03;1711848;83;22201;-67
2021/03/18 01:41:38;;;;;;;4.40;4.00;;;;;;;0.91;75.18;98166.84;1711656;83;21002;-66
2021/03/18 01:44:06;;;;;;;5.60;4.20;;;;;;;0.87;74.88;98159.95;1711866;83;20934;-67
2021/03/18 01:46:34;;;;;;;5.15;4.25;;;;;;;0.84;74.94;98160.05;1711818;83;20931;-67
2021/03/18 01:49:03;;;;;;;4.80;4.30;;;;;;;0.80;74.59;98159.27;1711973;83;21553;-68
2021/03/18 01:51:30;;;;;;;4.92;4.12;;;;;;;0.80;74.75;98155.77;1711783;83;21220;-66
2021/03/18 01:53:58;;;;;;;5.40;3.80;;;;;;;0.77;74.90;98159.38;1711817;83;20963;-66
2021/03/18 01:56:26;;;;;;;5.15;4.33;;;;;;;0.76;75.21;98158.10;1711773;83;21070;-66
2021/03/18 01:58:53;;;;;;;4.67;4.17;;;;;;;0.74;74.73;98165.23;1716433;83;21010;-67
2021/03/18 02:01:23;;;;;;;4.78;4.37;;;;;;;0.70;74.75;98161.36;1725208;83;20985;-68
2021/03/18 02:03:53;;;;;;;5.28;4.55;;;;;;;0.71;74.75;98165.75;1725229;82;21329;-68
2021/03/18 02:06:21;;;;;;;4.97;4.47;;;;;;;0.71;74.96;98167.54;1725139;82;21013;-66
2021/03/18 02:08:50;;;;;;;5.55;5.00;;;;;;;0.70;75.32;98165.33;1725178;83;21037;-66
2021/03/18 02:11:17;;;;;;;5.92;5.05;;;;;;;0.69;75.55;98164.95;1725068;83;20887;-66
2021/03/18 02:13:44;;;;;;;4.67;4.12;;;;;;;0.69;75.89;98162.30;1725234;83;20942;-66
2021/03/18 02:16:13;;;;;;;5.92;4.70;;;;;;;0.68;75.75;98168.96;1725035;83;21151;-66
2021/03/18 02:18:59;;;;;;;6.17;5.35;;;;;;;0.69;76.01;98171.55;1725126;83;21010;-66
2021/03/18 02:21:52;;;;;;;5.45;4.95;;;;;;;0.66;76.04;98169.02;1725238;83;20958;-66
2021/03/18 02:24:43;;;;;;;6.28;5.47;;;;;;;0.69;76.23;98172.88;1724364;83;21661;-67
2021/03/18 02:27:44;;;;;;;5.60;5.10;;;;;;;0.68;76.70;98176.42;1725261;83;20958;-66
2021/03/18 02:30:43;;;;;;;6.25;5.30;;;;;;;0.69;76.92;98174.20;1723790;83;21456;-67
2021/03/18 02:33:43;;;;;;;6.45;4.87;;;;;;;0.67;77.08;98179.97;1724439;83;21578;-67
2021/03/18 02:36:12;;;;;;;6.17;5.47;;;;;;;0.63;77.19;98181.00;1725058;83;20997;-67
2021/03/18 02:38:59;;;;;;;7.55;6.83;;;;;;;0.63;77.09;98183.65;1725200;83;21033;-66
2021/03/18 02:41:36;;;;;;;7.70;5.53;;;;;;;0.61;77.17;98182.81;1724497;83;20957;-66
2021/03/18 02:44:23;;;;;;;6.70;5.75;;;;;;;0.60;77.36;98185.07;1725257;83;22298;-67
2021/03/18 02:47:05;;;;;;;7.47;5.85;;;;;;;0.55;77.06;98185.65;1725151;83;21009;-67
2021/03/18 02:49:37;;;;;;;7.15;6.20;;;;;;;0.54;76.99;98191.88;1725186;83;20993;-67
2021/03/18 02:52:05;;;;;;;6.55;5.37;;;;;;;0.51;77.17;98195.47;1725134;83;21045;-67
2021/03/18 02:54:33;;;;;;;6.17;5.10;;;;;;;0.50;77.23;98193.73;1725177;83;21562;-67
2021/03/18 02:57:03;;;;;;;6.08;5.47;;;;;;;0.46;77.12;98190.80;1725196;83;21202;-67
2021/03/18 02:59:33;;;;;;;7.42;6.58;;;;;;;0.46;77.48;98191.27;1724964;83;21051;-66
2021/03/18 03:02:03;;;;;;;6.80;6.10;;;;;;;0.41;77.33;98194.48;1698760;83;21006;-67
2021/03/18 03:04:38;;;;;;;7.05;5.80;;;;;;;0.40;77.42;98196.27;1725211;83;21443;-67
2021/03/18 03:07:06;;;;;;;6.55;5.85;;;;;;;0.40;77.47;98200.70;1721246;83;20883;-66
2021/03/18 03:09:36;;;;;;;5.92;5.30;;;;;;;0.39;77.47;98200.28;1721160;83;21364;-68
2021/03/18 03:12:07;;;;;;;6.60;5.90;;;;;;;0.35;77.46;98195.56;1725135;83;21022;-66
2021/03/18 03:14:35;;;;;;;8.33;6.28;;;;;;;0.34;77.53;98213.16;1725185;83;20930;-67
2021/03/18 03:17:03;;;;;;;6.30;5.67;;;;;;;0.33;77.72;98198.68;1725145;83;21002;-67
2021/03/18 03:19:32;;;;;;;6.40;5.12;;;;;;;0.29;77.63;98197.92;1725144;83;21570;-68
2021/03/18 03:22:00;;;;;;;7.33;5.65;;;;;;;0.29;77.59;98203.20;1676513;83;22252;-67
2021/03/18 03:24:28;;;;;;;7.58;6.33;;;;;;;0.27;77.68;98210.33;1725037;83;20954;-67
2021/03/18 03:26:55;;;;;;;6.85;6.15;;;;;;;0.27;77.91;98202.83;1725229;83;20899;-67
2021/03/18 03:29:23;;;;;;;5.85;4.95;;;;;;;0.25;77.82;98204.20;1725236;83;20998;-67
2021/03/18 03:31:51;;;;;;;6.25;5.65;;;;;;;0.23;77.89;98204.72;1725341;83;21017;-67
2021/03/18 03:34:19;;;;;;;6.08;5.55;;;;;;;0.23;78.15;98206.03;1725304;83;21493;-67
2021/03/18 03:36:47;;;;;;;9.75;5.85;;;;;;;0.22;78.22;98205.65;1725224;83;20990;-66
2021/03/18 03:39:16;;;;;;;7.78;6.42;;;;;;;0.24;78.30;98205.14;1725263;83;20938;-66
2021/03/18 03:41:44;;;;;;;6.22;5.62;;;;;;;0.23;78.39;98206.50;1725255;83;21456;-66
2021/03/18 03:44:12;;;;;;;6.58;5.83;;;;;;;0.18;78.24;98205.32;1725347;83;21013;-67
2021/03/18 03:46:41;;;;;;;7.03;6.30;;;;;;;0.19;78.17;98209.70;1725296;83;21219;-67
2021/03/18 03:49:11;;;;;;;8.63;6.28;;;;;;;0.19;78.33;98207.06;1725251;83;21041;-67
2021/03/18 03:52:22;;;;;;;6.42;5.70;;;;;;;0.18;78.46;98211.45;1725408;83;20938;-67
2021/03/18 03:55:00;;;;;;;5.95;5.35;;;;;;;0.19;78.54;98209.70;1725176;83;21057;-67
2021/03/18 03:58:01;;;;;;;6.42;5.78;;;;;;;0.21;78.46;98211.83;1722969;83;20938;-67
2021/03/18 04:00:29;;;;;;;9.13;6.40;;;;;;;0.22;78.59;98203.01;1709665;83;21454;-67
2021/03/18 04:03:00;;;;;;;6.75;5.80;;;;;;;0.22;78.51;98208.29;1705617;84;21480;-68
2021/03/18 04:05:29;;;;;;;7.17;6.00;;;;;;;0.22;78.41;98210.93;1705538;83;21394;-67
2021/03/18 04:08:00;;;;;;;6.60;5.45;;;;;;;0.23;78.48;98213.96;1705552;84;20947;-67
2021/03/18 04:10:30;;;;;;;7.15;5.42;;;;;;;0.23;78.44;98207.36;1705605;83;21041;-68
2021/03/18 04:12:58;;;;;;;7.20;6.47;;;;;;;0.23;78.35;98207.36;1705523;84;21206;-67
2021/03/18 04:15:25;;;;;;;6.10;5.25;;;;;;;0.24;78.54;98213.06;1705578;84;21405;-67
2021/03/18 04:17:53;;;;;;;7.33;6.55;;;;;;;0.23;78.47;98208.67;1705573;84;21002;-67
2021/03/18 04:20:23;;;;;;;6.87;5.50;;;;;;;0.22;78.60;98212.25;1705522;84;21023;-67
2021/03/18 04:22:54;;;;;;;6.55;5.90;;;;;;;0.22;78.51;98205.65;1705541;84;20995;-67
2021/03/18 04:25:23;;;;;;;5.92;5.20;;;;;;;0.23;78.71;98210.00;1705538;84;21371;-68
2021/03/18 04:27:52;;;;;;;8.55;6.97;;;;;;;0.24;78.71;98204.28;1705548;83;21599;-67
2021/03/18 04:30:20;;;;;;;7.85;6.30;;;;;;;0.21;78.82;98207.87;1705515;83;20943;-66
2021/03/18 04:32:48;;;;;;;8.68;7.45;;;;;;;0.23;78.88;98213.96;1705621;84;21508;-67
2021/03/18 04:35:17;;;;;;;8.90;7.87;;;;;;;0.23;78.94;98213.96;1705527;84;22242;-67
2021/03/18 04:37:45;;;;;;;7.95;7.15;;;;;;;0.26;78.97;98219.15;1705523;83;21398;-67
2021/03/18 04:40:16;;;;;;;10.13;7.12;;;;;;;0.29;78.98;98219.05;1705404;84;20959;-67
2021/03/18 04:42:44;;;;;;;7.83;6.95;;;;;;;0.29;79.06;98216.41;1705601;84;21006;-68
2021/03/18 04:45:13;;;;;;;6.70;5.75;;;;;;;0.31;79.09;98212.41;1705492;84;21030;-65
2021/03/18 04:47:43;;;;;;;7.30;6.60;;;;;;;0.32;79.03;98218.97;1705611;84;21023;-67
2021/03/18 04:50:12;;;;;;;7.30;5.97;;;;;;;0.31;78.86;98213.26;1657098;84;21220;-69
2021/03/18 04:52:41;;;;;;;9.25;8.25;;;;;;;0.31;78.88;98218.55;1705491;84;20987;-67
2021/03/18 04:55:11;;;;;;;7.80;7.00;;;;;;;0.30;78.94;98222.12;1705524;84;21046;-68
2021/03/18 04:57:42;;;;;;;8.80;7.90;;;;;;;0.32;79.00;98225.56;1705492;84;21401;-67
2021/03/18 05:00:15;;;;;;;8.75;7.55;;;;;;;0.32;79.08;98224.25;1705507;83;20999;-67
2021/03/18 05:02:42;;;;;;;9.38;8.03;;;;;;;0.34;79.16;98227.70;1701804;83;21150;-69
2021/03/18 05:05:20;;;;;;;9.63;7.78;;;;;;;0.35;79.06;98224.63;1705003;84;20987;-68
2021/03/18 05:07:50;;;;;;;10.53;9.28;;;;;;;0.35;79.02;98221.52;1705532;84;20911;-67
2021/03/18 05:10:21;;;;;;;7.58;6.78;;;;;;;0.38;79.09;98228.92;1705551;83;20928;-66
2021/03/18 05:12:52;;;;;;;9.20;8.30;;;;;;;0.38;79.12;98235.53;1705608;84;20927;-67
2021/03/18 05:15:20;;;;;;;9.80;8.48;;;;;;;0.40;79.08;98235.05;1705588;84;22280;-68
2021/03/18 05:17:48;;;;;;;11.85;9.93;;;;;;;0.41;79.12;98236.76;1705505;84;20907;-68
2021/03/18 05:20:22;;;;;;;11.12;9.93;;;;;;;0.44;79.20;98234.02;1705474;84;20976;-66
2021/03/18 05:22:52;;;;;;;10.45;8.38;;;;;;;0.44;79.26;98241.52;1705530;84;21026;-65
2021/03/18 05:25:26;;;;;;;8.60;7.78;;;;;;;0.41;79.00;98238.08;1705490;84;21030;-67
2021/03/18 05:27:53;;;;;;;9.55;8.45;;;;;;;0.37;79.06;98241.28;1705497;83;22015;-67
2021/03/18 05:30:24;;;;;;;8.95;7.80;;;;;;;0.38;79.13;98243.45;1705437;83;21046;-66
2021/03/18 05:32:52;;;;;;;11.15;9.88;;;;;;;0.37;79.33;98233.82;1705542;84;21002;-68
2021/03/18 05:35:23;;;;;;;10.30;8.98;;;;;;;0.38;79.34;98248.74;1702740;84;21034;-68
2021/03/18 05:37:50;;;;;;;12.63;9.35;;;;;;;0.38;79.25;98251.38;1705551;84;21014;-68
2021/03/18 05:40:19;;;;;;;9.48;8.20;;;;;;;0.41;79.39;98251.29;1705527;84;21364;-66
2021/03/18 05:42:48;;;;;;;11.45;10.25;;;;;;;0.40;79.54;98241.66;1705454;84;20995;-68
2021/03/18 05:45:17;;;;;;;13.30;10.13;;;;;;;0.40;79.58;98248.27;1705438;83;20943;-68
2021/03/18 05:47:45;;;;;;;11.45;10.35;;;;;;;0.38;79.45;98251.38;1705519;83;20916;-67
2021/03/18 05:50:18;;;;;;;11.75;10.48;;;;;;;0.40;79.25;98250.91;1705483;84;21003;-68
2021/03/18 05:52:46;;;;;;;12.88;11.48;;;;;;;0.41;79.29;98253.94;1705522;84;21451;-67
2021/03/18 05:55:15;;;;;;;21.90;16.80;;;;;;;0.43;79.64;98257.42;1705432;84;21038;-67
2021/03/18 05:57:42;;;;;;;20.02;16.02;;;;;;;0.41;79.68;98252.18;1705469;83;21019;-67
2021/03/18 06:00:11;;;;;;;17.27;13.45;;;;;;;0.42;79.66;98260.96;1705376;83;21617;-66
2021/03/18 06:02:40;;;;;;;15.10;13.53;;;;;;;0.40;79.69;98257.05;1713000;83;21021;-68
2021/03/18 06:05:11;;;;;;;14.90;13.30;;;;;;;0.43;79.78;98270.63;1712852;83;21203;-67
2021/03/18 06:07:45;;;;;;;13.00;11.73;;;;;;;0.44;79.92;98265.30;1712797;83;20943;-66
2021/03/18 06:10:21;;;;;;;12.03;10.28;;;;;;;0.45;80.11;98272.29;1712900;83;20962;-68
2021/03/18 06:12:53;;;;;;;12.50;10.63;;;;;;;0.46;80.13;98270.53;1712815;83;20934;-68
2021/03/18 06:15:21;;;;;;;13.93;10.80;;;;;;;0.49;79.95;98267.77;1712900;83;21034;-68
2021/03/18 06:17:49;;;;;;;11.80;10.53;;;;;;;0.52;79.93;98270.31;1712790;83;21276;-66
2021/03/18 06:20:21;;;;;;;12.70;11.03;;;;;;;0.56;80.02;98282.54;1712639;83;21759;-67
2021/03/18 06:22:51;;;;;;;12.35;11.05;;;;;;;0.57;79.94;98278.99;1712750;83;21026;-67
2021/03/18 06:25:27;;;;;;;12.43;11.15;;;;;;;0.59;79.91;98282.45;1712833;83;21264;-68
2021/03/18 06:28:28;;;;;;;12.45;11.00;;;;;;;0.63;79.88;98278.80;1712820;83;20923;-69
2021/03/18 06:31:03;;;;;;;12.85;11.55;;;;;;;0.65;79.57;98284.90;1712803;83;21210;-66
2021/03/18 06:33:50;;;;;;;13.95;10.55;;;;;;;0.68;79.56;98290.09;1712837;83;21005;-68
2021/03/18 06:36:32;;;;;;;13.90;10.10;;;;;;;0.70;79.34;98288.26;1711992;83;21041;-67
2021/03/18 06:39:11;;;;;;;10.88;9.75;;;;;;;0.71;79.23;98290.00;1712766;83;20963;-67
2021/03/18 06:41:44;;;;;;;12.78;11.48;;;;;;;0.71;78.64;98290.00;1712439;83;21163;-67
2021/03/18 06:44:25;;;;;;;12.73;10.82;;;;;;;0.75;78.85;98289.91;1712897;83;21383;-67
2021/03/18 06:46:59;;;;;;;11.73;10.53;;;;;;;0.77;78.64;98287.59;1712702;83;20950;-68
2021/03/18 06:49:28;;;;;;;11.93;10.38;;;;;;;0.78;78.34;98290.66;1712792;83;20942;-67
2021/03/18 06:52:12;;;;;;;10.90;9.55;;;;;;;0.80;78.28;98294.11;1712718;83;20943;-67
2021/03/18 06:54:43;;;;;;;14.70;9.68;;;;;;;0.85;78.30;98296.61;1712868;83;20975;-67
2021/03/18 06:57:12;;;;;;;11.33;10.32;;;;;;;0.86;77.73;98293.06;1712735;83;21479;-67
2021/03/18 06:59:42;;;;;;;12.25;11.08;;;;;;;0.89;77.67;98295.62;1712746;82;21082;-68
2021/03/18 07:02:19;;;;;;;11.70;10.40;;;;;;;0.92;77.54;98290.23;1655968;86;21533;-69
2021/03/18 07:04:52;;;;;;;9.73;8.73;;;;;;;0.95;77.45;98294.10;1677798;85;21369;-66
2021/03/18 07:07:22;;;;;;;10.65;9.65;;;;;;;1.00;77.55;98301.42;1720106;83;21482;-68
2021/03/18 07:09:52;;;;;;;10.70;9.58;;;;;;;1.01;77.08;98296.98;1719875;83;21489;-67
2021/03/18 07:12:29;;;;;;;11.15;9.98;;;;;;;1.02;76.65;98302.22;1719866;83;21006;-67
2021/03/18 07:15:00;;;;;;;10.18;9.03;;;;;;;1.07;76.80;98300.76;1719916;83;20971;-67
2021/03/18 07:17:33;;;;;;;8.53;7.47;;;;;;;1.11;76.99;98302.86;1719634;83;20947;-68
2021/03/18 07:20:18;;;;;;;9.05;8.15;;;;;;;1.17;76.68;98303.52;1719979;83;21006;-69
2021/03/18 07:22:49;;;;;;;10.80;8.35;;;;;;;1.21;75.58;98298.98;1719926;83;21404;-69
2021/03/18 07:25:18;;;;;;;8.88;7.95;;;;;;;1.24;75.16;98296.23;1719785;83;20978;-69
2021/03/18 07:27:50;;;;;;;9.70;7.92;;;;;;;1.25;74.76;98291.37;1719930;83;20938;-69
2021/03/18 07:30:29;;;;;;;;;;;;;;;1.29;74.88;98298.27;1722309;83;21001;-69
2021/03/18 07:32:57;;;;;;;8.28;7.42;;;;;;;1.30;74.57;98298.69;1719868;83;20135;-68
2021/03/18 07:35:27;;;;;;;20.65;15.80;;;;;;;1.30;74.71;98296.03;1719989;83;21419;-69
2021/03/18 07:37:55;;;;;;;10.25;8.70;;;;;;;1.31;74.68;98293.81;1719838;83;20910;-69
2021/03/18 07:40:23;;;;;;;11.03;8.35;;;;;;;1.34;74.58;98297.67;1719919;83;21014;-70
2021/03/18 07:42:53;;;;;;;13.15;11.85;;;;;;;1.38;74.42;98300.61;1719807;83;21002;-68
2021/03/18 07:45:23;;;;;;;14.65;13.13;;;;;;;1.43;74.53;98301.78;1719918;83;21574;-67
2021/03/18 07:47:51;;;;;;;10.13;9.08;;;;;;;1.47;74.42;98299.88;1719939;83;21415;-70
2021/03/18 07:50:32;;;;;;;13.35;12.05;;;;;;;1.53;73.86;98304.53;1719850;83;21013;-70
2021/03/18 07:53:00;;;;;;;9.58;8.00;;;;;;;1.57;72.88;98306.60;1719886;82;21613;-70
2021/03/18 07:55:31;;;;;;;9.98;7.80;;;;;;;1.63;73.23;98305.07;1719904;83;20947;-70
2021/03/18 07:58:00;;;;;;;8.28;7.47;;;;;;;1.68;72.54;98300.94;1692770;83;21073;-71
2021/03/18 08:00:32;;;;;;;7.42;6.70;;;;;;;1.74;72.17;98305.55;1718085;83;21380;-69
2021/03/18 08:03:23;;;;;;;9.35;8.38;;;;;;;1.75;70.93;98298.03;1711912;83;21381;-67
2021/03/18 08:05:52;;;;;;;7.20;6.55;;;;;;;1.82;70.65;98297.81;1707724;83;20978;-68
2021/03/18 08:08:36;;;;;;;8.90;7.30;;;;;;;1.85;70.16;98297.70;1712005;83;21002;-67
2021/03/18 08:11:10;;;;;;;7.60;6.80;;;;;;;1.90;69.96;98291.30;1711995;83;21595;-68
2021/03/18 08:13:40;;;;;;;9.50;8.60;;;;;;;1.95;70.07;98296.44;1711794;83;21371;-69
2021/03/18 08:16:29;;;;;;;7.78;5.58;;;;;;;1.98;69.39;98298.98;1711817;83;20962;-69
2021/03/18 08:18:57;;;;;;;6.22;5.62;;;;;;;1.97;67.58;98294.15;1711902;83;20939;-67
2021/03/18 08:25:24;;;;;;;6.10;5.30;;;;;;;2.12;68.12;98298.01;1711945;83;20950;-69
2021/03/18 08:27:54;;;;;;;5.28;4.78;;;;;;;2.21;65.82;98296.81;1711955;83;21389;-70
2021/03/18 08:30:23;;;;;;;4.35;3.67;;;;;;;2.31;66.21;98299.98;1711825;83;21022;-69
2021/03/18 08:32:51;;;;;;;5.22;3.80;;;;;;;2.38;63.86;98300.17;1714167;83;20994;-70
2021/03/18 08:35:28;;;;;;;5.15;3.55;;;;;;;2.50;62.96;98299.67;1711949;83;21362;-69
2021/03/18 08:38:14;;;;;;;6.42;4.33;;;;;;;2.63;61.03;98288.16;1711730;83;20947;-69
2021/03/18 08:40:51;;;;;;;4.65;3.70;;;;;;;2.81;61.86;98290.54;1711865;83;21433;-71
2021/03/18 08:43:19;;;;;;;4.47;3.52;;;;;;;2.98;60.06;98291.64;1705384;83;21496;-71
2021/03/18 08:55:37;;;;;;;3.02;2.33;;;;;;;3.47;57.07;98286.98;1711936;83;20959;-71
2021/03/18 08:58:07;;;;;;;1.92;1.72;;;;;;;3.73;54.76;98287.64;1711891;83;21375;-72
2021/03/18 09:00:37;;;;;;;2.60;1.80;;;;;;;3.91;53.56;98281.53;1711768;83;21009;-70
2021/03/18 09:03:05;;;;;;;2.98;2.35;;;;;;;4.06;53.27;98276.45;1711895;83;21403;-71
2021/03/18 09:05:34;;;;;;;16.15;9.50;;;;;;;4.19;53.94;98282.08;1711810;83;20995;-69
2021/03/18 09:08:04;;;;;;;3.83;2.58;;;;;;;4.31;52.74;98280.20;1711949;83;21023;-71
2021/03/18 09:10:35;;;;;;;2.77;1.50;;;;;;;4.42;51.83;98282.37;1711888;83;22401;-70
2021/03/18 09:13:15;;;;;;;2.70;1.67;;;;;;;4.42;49.05;98287.69;1711856;83;20970;-70
2021/03/18 09:15:44;;;;;;;2.42;1.50;;;;;;;4.54;49.91;98285.80;1711884;83;20994;-71
2021/03/18 09:18:24;;;;;;;2.60;2.00;;;;;;;4.62;49.30;98294.27;1711864;83;21042;-71
2021/03/18 09:21:00;;;;;;;2.17;1.90;;;;;;;4.69;49.74;98284.20;1711964;83;20999;-70
2021/03/18 09:23:34;;;;;;;2.52;1.55;;;;;;;4.79;49.52;98284.61;1711936;83;22383;-70
2021/03/18 09:26:06;;;;;;;1.92;1.60;;;;;;;4.84;48.04;98289.23;1711773;83;21038;-70
2021/03/18 09:28:43;;;;;;;1.82;1.72;;;;;;;4.85;46.97;98285.17;1714175;83;21527;-71
2021/03/18 09:31:10;;;;;;;2.80;2.02;;;;;;;4.76;45.67;98279.44;1711885;83;21070;-71
2021/03/18 09:33:42;;;;;;;1.60;1.50;;;;;;;4.79;47.22;98292.59;1711914;83;20951;-71
2021/03/18 09:36:21;;;;;;;2.17;1.98;;;;;;;4.77;46.60;98291.34;1711869;83;21443;-70
2021/03/18 09:39:09;;;;;;;2.45;2.02;;;;;;;4.81;45.87;98284.06;1711858;83;21006;-71
2021/03/18 09:41:42;;;;;;;2.62;1.32;;;;;;;4.92;47.73;98283.55;1711900;83;20934;-72
2021/03/18 09:44:25;;;;;;;2.72;2.05;;;;;;;4.92;48.62;98287.55;1711964;83;21162;-72
2021/03/18 09:46:55;;;;;;;2.60;1.42;;;;;;;4.86;47.78;98282.06;1711931;83;21021;-71
2021/03/18 09:49:37;;;;;;;2.62;1.77;;;;;;;4.88;48.06;98278.85;1711868;83;21436;-69
2021/03/18 09:52:19;;;;;;;3.40;1.52;;;;;;;4.90;49.23;98282.30;1711790;83;21022;-69
2021/03/18 09:54:49;;;;;;;2.50;1.80;;;;;;;4.89;47.05;98269.94;1711901;83;20939;-70
2021/03/18 09:57:17;;;;;;;1.95;1.52;;;;;;;4.92;47.92;98271.58;1711828;83;20950;-70
2021/03/18 09:59:53;;;;;;;3.87;1.47;;;;;;;4.97;47.21;98276.23;1711854;83;20955;-71
2021/03/18 10:02:27;;;;;;;1.82;1.50;;;;;;;5.03;47.36;98275.91;1721038;83;21274;-70
2021/03/18 10:04:56;;;;;;;2.40;1.35;;;;;;;5.10;46.75;98273.83;1724851;83;37442;-71
2021/03/18 10:07:29;;;;;;;1.10;1.00;;;;;;;5.14;46.41;98276.71;1725242;83;21005;-71
2021/03/18 10:09:56;;;;;;;2.12;1.20;;;;;;;5.07;45.98;98270.36;1725180;83;20931;-70
2021/03/18 10:12:26;;;;;;;1.72;1.50;;;;;;;5.03;46.67;98272.80;1725158;83;21017;-71
2021/03/18 10:15:10;;;;;;;1.30;1.15;;;;;;;4.94;45.07;98273.23;1725205;83;21671;-70
2021/03/18 10:17:40;;;;;;;2.02;1.50;;;;;;;5.00;45.70;98283.59;1725171;83;20974;-70
2021/03/18 10:20:28;;;;;;;6.92;1.30;;;;;;;4.99;46.93;98276.53;1724819;83;21057;-72
2021/03/18 10:23:12;;;;;;;1.77;1.20;;;;;;;4.93;45.54;98271.50;1725248;83;21444;-70
2021/03/18 10:25:42;;;;;;;2.67;0.95;;;;;;;4.97;46.50;98275.75;1725213;82;21018;-71
2021/03/18 10:28:14;;;;;;;1.55;1.32;;;;;;;4.99;45.10;98274.34;1725546;83;21360;-70
2021/03/18 10:30:47;;;;;;;1.20;1.10;;;;;;;4.98;47.16;98271.28;1725700;83;21002;-70
2021/03/18 10:33:23;;;;;;;1.75;1.20;;;;;;;5.05;48.28;98265.59;1725656;83;20954;-71
2021/03/18 10:35:58;;;;;;;1.80;1.50;;;;;;;5.05;48.45;98270.91;1725480;83;21018;-70
2021/03/18 10:38:34;;;;;;;1.95;1.52;;;;;;;5.05;47.37;98269.58;1725309;83;20930;-71
2021/03/18 10:41:13;;;;;;;2.10;1.50;;;;;;;5.06;47.53;98264.66;1725218;83;21278;-72
2021/03/18 10:43:42;;;;;;;1.50;1.32;;;;;;;5.04;47.16;98262.52;1724790;83;20938;-71
2021/03/18 10:46:15;;;;;;;3.02;2.00;;;;;;;4.91;45.60;98264.07;1725201;83;20958;-70
2021/03/18 10:48:49;;;;;;;5.47;1.27;;;;;;;4.91;46.84;98251.24;1725153;83;20997;-69
2021/03/18 10:51:20;;;;;;;2.92;1.27;;;;;;;4.81;45.55;98253.02;1725436;83;20942;-70
2021/03/18 10:53:50;;;;;;;1.20;1.02;;;;;;;4.83;47.25;98263.11;1725209;83;20938;-71
2021/03/18 10:56:27;;;;;;;2.25;0.90;;;;;;;4.82;46.90;98257.86;1725208;83;20954;-69
2021/03/18 10:58:57;;;;;;;2.12;1.62;;;;;;;4.81;46.28;98255.67;1725171;82;20947;-70
2021/03/18 11:01:29;;;;;;;1.62;1.05;;;;;;;4.80;46.94;98249.09;1724983;83;21009;-70
2021/03/18 11:04:05;;;;;;;2.10;1.30;;;;;;;4.81;46.81;98253.45;1725270;83;21341;-70
2021/03/18 11:06:47;;;;;;;2.20;1.35;;;;;;;4.79;47.00;98256.20;1725258;83;22334;-71
2021/03/18 11:09:16;;;;;;;3.47;2.83;;;;;;;4.81;46.42;98250.80;1725114;83;20974;-71
2021/03/18 11:11:57;;;;;;;2.00;1.60;;;;;;;4.80;45.95;98251.28;1725219;83;20899;-71
2021/03/18 11:14:27;;;;;;;5.33;1.27;;;;;;;4.80;45.47;98247.77;1725101;83;21025;-71
2021/03/18 11:17:07;;;;;;;3.15;1.45;;;;;;;4.75;45.06;98247.13;1725365;83;21467;-70
2021/03/18 11:19:37;;;;;;;1.00;0.95;;;;;;;4.73;45.35;98247.66;1725137;83;21356;-71
2021/03/18 11:22:05;;;;;;;1.77;1.30;;;;;;;4.70;45.97;98250.87;1722330;83;21166;-73
2021/03/18 11:24:33;;;;;;;2.20;1.50;;;;;;;4.66;46.46;98242.63;1725133;83;20954;-71
2021/03/18 11:27:05;;;;;;;1.60;1.45;;;;;;;4.66;45.81;98241.77;1725208;83;21013;-71
2021/03/18 11:29:36;;;;;;;10.20;2.02;;;;;;;4.65;46.69;98243.58;1725314;83;20965;-69
2021/03/18 11:32:07;;;;;;;2.12;1.37;;;;;;;4.63;47.25;98240.59;1725206;83;21369;-71
2021/03/18 11:34:37;;;;;;;2.98;1.82;;;;;;;4.62;47.84;98237.08;1725135;83;21010;-70
2021/03/18 11:37:10;;;;;;;4.72;2.40;;;;;;;4.60;48.08;98232.27;1725188;83;20942;-71
2021/03/18 11:39:39;;;;;;;2.83;1.70;;;;;;;4.61;48.12;98231.83;1725282;83;20942;-70
2021/03/18 11:42:07;;;;;;;1.77;1.10;;;;;;;4.59;46.74;98226.58;1725210;83;20934;-73
2021/03/18 11:44:36;;;;;;;2.35;1.60;;;;;;;4.58;46.29;98226.17;1725116;83;21376;-71
2021/03/18 11:47:07;;;;;;;1.67;1.12;;;;;;;4.57;46.71;98225.77;1725228;83;21543;-72
2021/03/18 11:49:37;;;;;;;2.25;1.80;;;;;;;4.51;45.82;98226.94;1725316;83;20966;-71
2021/03/18 11:52:07;;;;;;;2.42;1.82;;;;;;;4.46;46.46;98229.41;1725309;83;20954;-70
2021/03/18 11:54:35;;;;;;;3.10;1.72;;;;;;;4.42;46.73;98225.19;1725273;83;20997;-71
2021/03/18 11:57:03;;;;;;;7.17;2.15;;;;;;;4.34;46.98;98230.39;1725324;83;21388;-71
2021/03/18 11:59:34;;;;;;;4.65;2.05;;;;;;;4.30;47.45;98224.84;1725207;83;20997;-71
2021/03/18 12:02:01;;;;;;;2.22;1.60;;;;;;;4.27;47.69;98227.64;1721065;83;21572;-72
2021/03/18 12:04:30;;;;;;;1.77;1.67;;;;;;;4.23;46.88;98222.53;1711817;83;21508;-70
2021/03/18 12:07:00;;;;;;;3.83;2.12;;;;;;;4.19;47.29;98219.13;1712023;83;20939;-70
2021/03/18 12:09:27;;;;;;;3.25;1.75;;;;;;;4.20;47.98;98219.54;1711934;83;21205;-70
2021/03/18 12:11:54;;;;;;;2.47;1.60;;;;;;;4.19;48.32;98217.80;1711877;83;21034;-70
2021/03/18 12:14:26;;;;;;;1.67;1.50;;;;;;;4.19;48.06;98213.81;1711843;83;21045;-71
2021/03/18 12:16:54;;;;;;;2.52;2.12;;;;;;;4.18;47.69;98212.11;1711952;83;21035;-71
2021/03/18 12:19:25;;;;;;;3.70;1.77;;;;;;;4.17;48.01;98211.70;1711919;83;21034;-70
2021/03/18 12:21:54;;;;;;;6.40;3.47;;;;;;;4.17;47.38;98198.41;1711905;83;21383;-72
2021/03/18 12:24:22;;;;;;;4.08;2.90;;;;;;;4.16;48.04;98205.98;1711803;83;21034;-70